Fishers Ferry, Pennsylvania
Current Conditions -  °F | °C
As of 8:53 PM on Friday 24 Oct 2014 (Local Time) from KSEG Reporting Station
Clear Clear  
Wind Chill: 54°   Ceiling: Unl
Heat Index: 54°   Visibility: 10mi
Dew Point: 38°   Wind: 6mph
Humidity: 55%   Direction: 310°NW
Pressure: 29.92"   Gusts: NA
Location:  40.83°N, 76.761°W
Report Text: KSEG 250053Z AUTO 31005KT 10SM CLR 12/03 A2992 RMK AO2 SLP132 T01220033
Loading
Personal Weather Stations






























Interactive Weather Map
Tropical Storm Tracking
New forecast layout! Learn more

10-Day Weather Forecast

Advertisements
Track Severe Weather on mobile